createdAt,value
2019-05-06T00:00:19.020Z,7.41
2019-05-06T00:01:19.009Z,7.36
2019-05-06T00:02:19.022Z,7.37
2019-05-06T00:03:18.986Z,7.30
2019-05-06T00:04:18.978Z,7.33
2019-05-06T00:05:18.967Z,7.36
2019-05-06T00:06:18.956Z,7.27
2019-05-06T00:07:18.965Z,7.23
2019-05-06T00:08:18.929Z,7.26
2019-05-06T00:09:18.921Z,7.26
2019-05-06T00:10:18.907Z,7.27
2019-05-06T00:11:18.897Z,7.19
2019-05-06T00:12:18.911Z,7.23
2019-05-06T00:13:18.874Z,7.16
2019-05-06T00:14:18.867Z,7.18
2019-05-06T00:15:18.851Z,7.23
2019-05-06T00:16:18.845Z,7.23
2019-05-06T00:17:18.832Z,7.15
2019-05-06T00:18:18.842Z,7.18
2019-05-06T00:19:18.804Z,7.05
2019-05-06T00:20:18.796Z,7.05
2019-05-06T00:21:18.785Z,7.01
2019-05-06T00:22:18.776Z,7.05
2019-05-06T00:23:18.783Z,7.07
2019-05-06T00:24:18.747Z,6.97
2019-05-06T00:25:18.751Z,7.00
2019-05-06T00:26:18.726Z,7.00
2019-05-06T00:27:18.714Z,7.00
2019-05-06T00:28:18.727Z,7.01
2019-05-06T00:29:18.692Z,7.04
2019-05-06T00:30:18.680Z,7.07
2019-05-06T00:31:18.673Z,7.01
2019-05-06T00:32:18.656Z,7.00
2019-05-06T00:33:18.679Z,7.00
2019-05-06T00:34:18.636Z,7.04
2019-05-06T00:35:18.622Z,7.07
2019-05-06T00:36:18.613Z,7.00
2019-05-06T00:37:18.603Z,7.01
2019-05-06T00:38:18.617Z,7.01
2019-05-06T00:39:18.577Z,7.00
2019-05-06T00:40:18.567Z,7.00
2019-05-06T00:41:18.556Z,6.97
2019-05-06T00:42:18.543Z,6.94
2019-05-06T00:43:18.560Z,6.97
2019-05-06T00:44:18.520Z,7.00
2019-05-06T00:45:18.509Z,6.99
2019-05-06T00:46:18.504Z,6.93
2019-05-06T00:47:18.488Z,7.04
2019-05-06T00:48:18.504Z,7.01
2019-05-06T00:49:18.465Z,6.91
2019-05-06T00:50:18.462Z,6.90
2019-05-06T00:51:18.443Z,6.90
2019-05-06T00:52:18.438Z,6.90
2019-05-06T00:53:18.448Z,6.86
2019-05-06T00:54:18.412Z,6.65
2019-05-06T00:55:18.398Z,6.69
2019-05-06T00:56:18.388Z,6.64
2019-05-06T00:57:18.378Z,6.68
2019-05-06T00:58:18.390Z,6.65
2019-05-06T00:59:18.356Z,6.68
2019-05-06T01:00:18.376Z,6.65
2019-05-06T01:01:26.980Z,6.58
2019-05-06T01:02:19.318Z,6.63
2019-05-06T01:03:18.343Z,6.63
2019-05-06T01:04:18.299Z,6.63
2019-05-06T01:05:18.288Z,6.54
2019-05-06T01:06:18.273Z,6.45
2019-05-06T01:07:18.265Z,6.46
2019-05-06T01:08:18.276Z,6.42
2019-05-06T01:09:18.238Z,6.33
2019-05-06T01:10:18.228Z,6.45
2019-05-06T01:11:18.219Z,6.43
2019-05-06T01:12:18.204Z,6.48
2019-05-06T01:13:18.197Z,6.43
2019-05-06T01:14:18.211Z,6.48
2019-05-06T01:15:18.173Z,6.42
2019-05-06T01:16:18.161Z,6.46
2019-05-06T01:17:18.150Z,6.48
2019-05-06T01:18:18.148Z,6.51
2019-05-06T01:19:18.153Z,6.45
2019-05-06T01:20:18.114Z,6.36
2019-05-06T01:21:18.103Z,6.36
2019-05-06T01:22:18.092Z,6.36
2019-05-06T01:23:18.086Z,6.32
2019-05-06T01:24:18.094Z,6.33
2019-05-06T01:25:18.067Z,6.33
2019-05-06T01:26:18.049Z,6.35
2019-05-06T01:27:18.037Z,6.33
2019-05-06T01:28:18.024Z,6.36
2019-05-06T01:29:18.038Z,6.38
2019-05-06T01:30:18.003Z,6.38
2019-05-06T01:31:17.993Z,6.38
2019-05-06T01:32:17.983Z,6.33
2019-05-06T01:33:17.971Z,6.33
2019-05-06T01:34:17.982Z,6.39
2019-05-06T01:35:17.953Z,6.35
2019-05-06T01:36:17.936Z,6.38
2019-05-06T01:37:17.923Z,6.33
2019-05-06T01:38:17.913Z,6.38
2019-05-06T01:39:17.930Z,6.35
2019-05-06T01:40:17.897Z,6.28
2019-05-06T01:41:17.881Z,6.30
2019-05-06T01:42:17.869Z,6.32
2019-05-06T01:43:17.860Z,6.25
2019-05-06T01:44:17.872Z,6.32
2019-05-06T01:45:17.837Z,6.21
2019-05-06T01:46:17.825Z,6.11
2019-05-06T01:47:17.813Z,6.11
2019-05-06T01:48:17.823Z,6.16
2019-05-06T01:49:17.795Z,6.10
2019-05-06T01:50:17.809Z,6.11
2019-05-06T01:51:17.769Z,6.13
2019-05-06T01:52:17.758Z,6.10
2019-05-06T01:53:17.749Z,6.17
2019-05-06T01:54:17.738Z,6.10
2019-05-06T01:55:17.749Z,5.99
2019-05-06T01:56:17.713Z,6.14
2019-05-06T01:57:17.702Z,6.13
2019-05-06T01:58:17.694Z,6.13
2019-05-06T01:59:17.681Z,6.17
2019-05-06T02:00:17.697Z,6.14
2019-05-06T02:01:17.663Z,6.11
2019-05-06T02:02:17.654Z,6.11
2019-05-06T02:03:17.640Z,6.13
2019-05-06T02:04:17.627Z,6.13
2019-05-06T02:05:17.641Z,6.05
2019-05-06T02:06:17.604Z,6.08
2019-05-06T02:07:17.596Z,5.96
2019-05-06T02:08:17.586Z,5.99
2019-05-06T02:09:17.577Z,5.98
2019-05-06T02:10:17.585Z,5.99
2019-05-06T02:11:17.551Z,5.99
2019-05-06T02:12:17.539Z,6.06
2019-05-06T02:13:17.530Z,5.99
2019-05-06T02:14:17.517Z,5.98
2019-05-06T02:15:17.532Z,5.99
2019-05-06T02:16:17.499Z,5.99
2019-05-06T02:17:17.491Z,6.10
2019-05-06T02:18:17.474Z,6.03
2019-05-06T02:19:17.464Z,6.06
2019-05-06T02:20:17.484Z,6.05
2019-05-06T02:21:17.448Z,6.16
2019-05-06T02:22:17.433Z,6.10
2019-05-06T02:23:17.426Z,6.03
2019-05-06T02:24:17.409Z,6.06
2019-05-06T02:25:17.422Z,6.03
2019-05-06T02:26:17.390Z,6.02
2019-05-06T02:27:17.380Z,6.01
2019-05-06T02:28:17.366Z,5.98
2019-05-06T02:29:17.355Z,6.06
2019-05-06T02:30:17.378Z,5.93
2019-05-06T02:31:17.337Z,5.84
2019-05-06T02:32:25.915Z,5.87
2019-05-06T02:33:18.313Z,5.84
2019-05-06T02:34:17.322Z,5.87
2019-05-06T02:35:17.317Z,5.88
2019-05-06T02:36:17.281Z,5.92
2019-05-06T02:37:17.267Z,5.95
2019-05-06T02:38:17.262Z,5.88
2019-05-06T02:39:17.249Z,5.96
2019-05-06T02:40:17.271Z,6.05
2019-05-06T02:41:17.227Z,5.98
2019-05-06T02:42:17.215Z,6.10
2019-05-06T02:43:17.204Z,6.01
2019-05-06T02:44:17.195Z,6.02
2019-05-06T02:45:17.215Z,6.01
2019-05-06T02:46:17.169Z,6.03
2019-05-06T02:47:17.158Z,5.98
2019-05-06T02:48:17.147Z,6.03
2019-05-06T02:49:17.134Z,6.01
2019-05-06T02:50:17.128Z,5.90
2019-05-06T02:51:17.140Z,5.98
2019-05-06T02:52:17.105Z,6.02
2019-05-06T02:53:17.094Z,5.96
2019-05-06T02:54:17.083Z,5.99
2019-05-06T02:55:17.076Z,6.02
2019-05-06T02:56:17.089Z,5.96
2019-05-06T02:57:17.048Z,5.96
2019-05-06T02:58:17.042Z,5.99
2019-05-06T02:59:17.026Z,6.01
2019-05-06T03:00:17.025Z,5.96
2019-05-06T03:01:17.029Z,6.05
2019-05-06T03:02:33.706Z,5.92
2019-05-06T03:03:17.983Z,5.96
2019-05-06T03:04:16.975Z,5.92
2019-05-06T03:05:16.961Z,5.87
2019-05-06T03:06:16.973Z,5.84
2019-05-06T03:07:16.939Z,5.80
2019-05-06T03:08:16.932Z,5.90
2019-05-06T03:09:16.919Z,5.90
2019-05-06T03:10:16.908Z,5.88
2019-05-06T03:11:16.926Z,5.83
2019-05-06T03:12:16.886Z,5.70
2019-05-06T03:13:16.877Z,5.81
2019-05-06T03:14:16.865Z,5.81
2019-05-06T03:15:17.126Z,5.90
2019-05-06T03:16:16.868Z,5.81
2019-05-06T03:17:16.831Z,5.84
2019-05-06T03:18:16.821Z,5.81
2019-05-06T03:19:16.811Z,5.88
2019-05-06T03:20:16.800Z,5.88
2019-05-06T03:21:16.794Z,5.98
2019-05-06T03:22:16.814Z,5.95
2019-05-06T03:23:16.769Z,5.93
2019-05-06T03:24:16.756Z,5.92
2019-05-06T03:25:16.749Z,5.99
2019-05-06T03:26:16.735Z,5.93
2019-05-06T03:27:16.747Z,5.99
2019-05-06T03:28:16.712Z,6.01
2019-05-06T03:29:16.701Z,6.01
2019-05-06T03:30:17.212Z,5.88
2019-05-06T03:31:17.194Z,5.98
2019-05-06T03:32:24.682Z,5.93
2019-05-06T03:33:40.343Z,5.88
2019-05-06T03:34:38.325Z,5.90
2019-05-06T03:35:33.126Z,5.87
2019-05-06T03:36:25.537Z,5.92
2019-05-06T03:37:17.778Z,5.88
2019-05-06T03:38:16.602Z,6.01
2019-05-06T03:39:16.591Z,6.01
2019-05-06T03:40:16.584Z,6.02
2019-05-06T03:41:16.568Z,6.02
2019-05-06T03:42:17.058Z,6.05
2019-05-06T03:43:16.569Z,6.01
2019-05-06T03:44:16.885Z,6.03
2019-05-06T03:45:16.529Z,5.98
2019-05-06T03:46:16.522Z,6.01
2019-05-06T03:47:16.530Z,6.03
2019-05-06T03:48:16.495Z,6.05
2019-05-06T03:49:16.482Z,5.93
2019-05-06T03:50:16.473Z,5.90
2019-05-06T03:51:16.458Z,5.93
2019-05-06T03:52:16.483Z,5.92
2019-05-06T03:53:16.436Z,5.88
2019-05-06T03:54:16.427Z,5.95
2019-05-06T03:55:16.416Z,5.92
2019-05-06T03:56:19.754Z,5.87
2019-05-06T03:57:16.421Z,6.01
2019-05-06T03:58:16.385Z,5.85
2019-05-06T03:59:16.374Z,5.90
2019-05-06T04:00:16.614Z,6.02
2019-05-06T04:01:16.354Z,5.93
2019-05-06T04:02:16.368Z,5.92
2019-05-06T04:03:16.332Z,5.90
2019-05-06T04:04:16.318Z,5.90
2019-05-06T04:05:16.310Z,5.90
2019-05-06T04:06:16.307Z,5.99
2019-05-06T04:07:16.310Z,5.90
2019-05-06T04:08:20.153Z,5.87
2019-05-06T04:09:16.272Z,5.99
2019-05-06T04:10:16.256Z,5.88
2019-05-06T04:11:16.242Z,5.87
2019-05-06T04:12:16.257Z,5.81
2019-05-06T04:13:16.222Z,5.83
2019-05-06T04:14:16.210Z,5.78
2019-05-06T04:15:16.199Z,5.73
2019-05-06T04:16:16.189Z,5.69
2019-05-06T04:17:16.177Z,5.77
2019-05-06T04:18:16.192Z,5.69
2019-05-06T04:19:16.154Z,5.74
2019-05-06T04:20:16.148Z,5.81
2019-05-06T04:21:16.678Z,5.87
2019-05-06T04:22:16.128Z,5.92
2019-05-06T04:23:16.135Z,5.96
2019-05-06T04:24:16.101Z,5.95
2019-05-06T04:25:16.090Z,5.87
2019-05-06T04:26:16.079Z,5.90
2019-05-06T04:27:16.074Z,5.93
2019-05-06T04:28:16.085Z,5.98
2019-05-06T04:29:16.045Z,5.93
2019-05-06T04:30:16.044Z,5.93
2019-05-06T04:31:16.023Z,5.92
2019-05-06T04:32:16.011Z,5.90
2019-05-06T04:33:17.403Z,5.98
2019-05-06T04:34:19.564Z,5.99
2019-05-06T04:35:15.984Z,5.95
2019-05-06T04:36:15.971Z,5.95
2019-05-06T04:37:15.961Z,5.93
2019-05-06T04:38:15.977Z,5.87
2019-05-06T04:39:15.939Z,5.90
2019-05-06T04:40:15.932Z,5.88
2019-05-06T04:41:15.912Z,5.92
2019-05-06T04:42:15.911Z,5.87
2019-05-06T04:43:15.917Z,5.92
2019-05-06T04:44:15.881Z,5.95
2019-05-06T04:45:17.370Z,5.99
2019-05-06T04:46:17.016Z,6.02
2019-05-06T04:47:15.852Z,5.88
2019-05-06T04:48:15.866Z,5.99
2019-05-06T04:49:15.832Z,5.90
2019-05-06T04:50:15.816Z,5.99
2019-05-06T04:51:15.810Z,5.98
2019-05-06T04:52:15.794Z,5.96
2019-05-06T04:53:15.784Z,6.02
2019-05-06T04:54:15.798Z,6.03
2019-05-06T04:55:15.759Z,5.98
2019-05-06T04:56:15.748Z,5.98
2019-05-06T04:57:15.737Z,6.01
2019-05-06T04:58:15.751Z,5.98
2019-05-06T04:59:15.713Z,5.96
2019-05-06T05:00:15.713Z,6.03
2019-05-06T05:01:15.998Z,6.02
2019-05-06T05:02:15.680Z,6.01
2019-05-06T05:03:15.676Z,6.06
2019-05-06T05:04:28.541Z,6.08
2019-05-06T05:05:16.647Z,6.13
2019-05-06T05:06:15.635Z,6.21
2019-05-06T05:07:15.627Z,6.30
2019-05-06T05:08:15.617Z,6.20
2019-05-06T05:09:17.418Z,6.19
2019-05-06T05:10:15.594Z,6.28
2019-05-06T05:11:15.598Z,6.28
2019-05-06T05:12:15.570Z,6.25
2019-05-06T05:13:15.561Z,6.25
2019-05-06T05:14:15.572Z,6.32
2019-05-06T05:15:15.536Z,6.28
2019-05-06T05:16:15.531Z,6.25
2019-05-06T05:17:15.521Z,6.17
2019-05-06T05:18:15.503Z,6.27
2019-05-06T05:19:15.521Z,6.28
2019-05-06T05:20:15.486Z,6.20
2019-05-06T05:21:15.471Z,6.24
2019-05-06T05:22:15.459Z,6.14
2019-05-06T05:23:15.469Z,6.10
2019-05-06T05:24:15.466Z,6.11
2019-05-06T05:25:15.426Z,6.24
2019-05-06T05:26:15.416Z,6.24
2019-05-06T05:27:15.405Z,6.25
2019-05-06T05:28:15.393Z,6.24
2019-05-06T05:29:15.405Z,6.19
2019-05-06T05:30:15.376Z,6.21
2019-05-06T05:31:15.359Z,6.24
2019-05-06T05:32:15.349Z,6.20
2019-05-06T05:33:15.337Z,6.27
2019-05-06T05:34:15.353Z,6.27
2019-05-06T05:35:15.314Z,6.32
2019-05-06T05:36:15.306Z,6.32
2019-05-06T05:37:15.293Z,6.36
2019-05-06T05:38:15.282Z,6.35
2019-05-06T05:39:15.296Z,6.38
2019-05-06T05:40:15.262Z,6.33
2019-05-06T05:41:15.247Z,6.43
2019-05-06T05:42:15.264Z,6.46
2019-05-06T05:43:15.227Z,6.53
2019-05-06T05:44:15.238Z,6.50
2019-05-06T05:45:15.205Z,6.46
2019-05-06T05:46:15.193Z,6.48
2019-05-06T05:47:15.194Z,6.51
2019-05-06T05:48:15.180Z,6.45
2019-05-06T05:49:18.125Z,6.58
2019-05-06T05:50:16.149Z,6.58
2019-05-06T05:51:15.139Z,6.46
2019-05-06T05:52:15.130Z,6.51
2019-05-06T05:53:15.117Z,6.55
2019-05-06T05:54:15.119Z,6.48
2019-05-06T05:55:15.122Z,6.55
2019-05-06T05:56:15.083Z,6.65
2019-05-06T05:57:15.075Z,6.64
2019-05-06T05:58:15.063Z,6.69
2019-05-06T05:59:15.056Z,6.72
2019-05-06T06:00:15.070Z,6.73
2019-05-06T06:01:15.030Z,6.75
2019-05-06T06:02:15.018Z,6.68
2019-05-06T06:03:15.010Z,6.64
2019-05-06T06:04:15.005Z,6.68
2019-05-06T06:05:15.010Z,6.72
2019-05-06T06:06:14.974Z,6.72
2019-05-06T06:07:14.962Z,6.76
2019-05-06T06:08:14.955Z,6.82
2019-05-06T06:09:14.949Z,6.91
2019-05-06T06:10:14.962Z,6.93
2019-05-06T06:11:14.920Z,6.91
2019-05-06T06:12:14.912Z,6.89
2019-05-06T06:13:14.897Z,6.90
2019-05-06T06:14:14.886Z,6.93
2019-05-06T06:15:14.903Z,6.91
2019-05-06T06:16:14.863Z,6.89
2019-05-06T06:17:14.853Z,6.87
2019-05-06T06:18:14.845Z,6.89
2019-05-06T06:19:14.832Z,6.93
2019-05-06T06:20:14.847Z,6.86
2019-05-06T06:21:21.233Z,6.87
2019-05-06T06:22:15.800Z,6.86
2019-05-06T06:23:14.788Z,6.91
2019-05-06T06:24:14.781Z,6.91
2019-05-06T06:25:14.796Z,6.89
2019-05-06T06:26:14.769Z,6.76
2019-05-06T06:27:14.745Z,6.79
2019-05-06T06:28:14.735Z,6.82
2019-05-06T06:29:14.723Z,6.82
2019-05-06T06:30:14.738Z,6.83
2019-05-06T06:31:14.701Z,6.86
2019-05-06T06:32:14.690Z,6.96
2019-05-06T06:33:14.679Z,7.04
2019-05-06T06:34:14.670Z,7.07
2019-05-06T06:35:14.889Z,7.00
2019-05-06T06:36:14.649Z,7.00
2019-05-06T06:37:14.638Z,7.01
2019-05-06T06:38:14.633Z,7.11
2019-05-06T06:39:14.614Z,7.07
2019-05-06T06:40:14.630Z,7.12
2019-05-06T06:41:14.595Z,7.16
2019-05-06T06:42:14.582Z,7.12
2019-05-06T06:43:14.570Z,7.07
2019-05-06T06:44:14.573Z,7.04
2019-05-06T06:45:14.568Z,7.15
2019-05-06T06:46:14.562Z,7.07
2019-05-06T06:47:14.529Z,7.11
2019-05-06T06:48:14.526Z,7.07
2019-05-06T06:49:14.507Z,7.14
2019-05-06T06:50:14.495Z,7.23
2019-05-06T06:51:14.510Z,7.14
2019-05-06T06:52:15.021Z,7.27
2019-05-06T06:53:14.462Z,7.16
2019-05-06T06:54:14.451Z,7.19
2019-05-06T06:55:14.443Z,7.24
2019-05-06T06:56:14.451Z,7.14
2019-05-06T06:57:14.419Z,7.16
2019-05-06T06:58:14.405Z,7.11
2019-05-06T06:59:14.395Z,7.19
2019-05-06T07:00:14.387Z,7.08
2019-05-06T07:01:14.399Z,7.21
2019-05-06T07:02:14.361Z,7.29
2019-05-06T07:03:14.350Z,7.32
2019-05-06T07:04:14.354Z,7.42
2019-05-06T07:05:24.326Z,7.42
2019-05-06T07:06:15.380Z,7.41
2019-05-06T07:07:14.312Z,7.55
2019-05-06T07:08:14.300Z,7.51
2019-05-06T07:09:14.284Z,7.55
2019-05-06T07:10:14.275Z,7.69
2019-05-06T07:11:14.286Z,7.67
2019-05-06T07:12:14.283Z,7.79
2019-05-06T07:13:14.243Z,7.63
2019-05-06T07:14:14.236Z,7.79
2019-05-06T07:15:14.220Z,7.91
2019-05-06T07:16:14.244Z,7.82
2019-05-06T07:17:14.197Z,7.81
2019-05-06T07:18:14.187Z,7.88
2019-05-06T07:19:14.172Z,7.81
2019-05-06T07:20:14.164Z,7.95
2019-05-06T07:21:14.177Z,7.95
2019-05-06T07:22:14.141Z,8.02
2019-05-06T07:23:14.131Z,7.94
2019-05-06T07:24:14.117Z,7.95
2019-05-06T07:25:14.106Z,7.95
2019-05-06T07:26:14.122Z,8.03
2019-05-06T07:27:14.086Z,8.03
2019-05-06T07:28:14.127Z,7.96
2019-05-06T07:29:23.080Z,7.95
2019-05-06T07:30:15.050Z,7.91
2019-05-06T07:31:21.212Z,7.99
2019-05-06T07:32:15.029Z,7.92
2019-05-06T07:33:14.017Z,7.95
2019-05-06T07:34:14.004Z,8.03
2019-05-06T07:35:13.994Z,8.04
2019-05-06T07:36:14.006Z,8.17
2019-05-06T07:37:13.980Z,8.12
2019-05-06T07:38:13.963Z,8.27
2019-05-06T07:39:15.245Z,8.24
2019-05-06T07:40:13.936Z,8.32
2019-05-06T07:41:15.102Z,8.40
2019-05-06T07:42:13.915Z,8.46
2019-05-06T07:43:13.903Z,8.46
2019-05-06T07:44:13.893Z,8.50
2019-05-06T07:45:13.879Z,8.58
2019-05-06T07:46:13.869Z,8.58
2019-05-06T07:47:15.773Z,8.60
2019-05-06T07:48:13.845Z,8.60
2019-05-06T07:49:13.836Z,8.61
2019-05-06T07:50:13.829Z,8.70
2019-05-06T07:51:13.813Z,8.68
2019-05-06T07:52:17.065Z,8.71
2019-05-06T07:53:13.788Z,8.73
2019-05-06T07:54:13.778Z,8.79
2019-05-06T07:55:13.768Z,8.73
2019-05-06T07:56:13.756Z,8.76
2019-05-06T07:57:13.770Z,8.78
2019-05-06T07:58:14.010Z,8.71
2019-05-06T07:59:13.721Z,8.73
2019-05-06T08:00:13.713Z,8.86
2019-05-06T08:01:13.929Z,8.86
2019-05-06T08:02:13.711Z,8.85
2019-05-06T08:03:14.194Z,8.76
2019-05-06T08:04:13.668Z,8.76
2019-05-06T08:05:13.653Z,8.76
2019-05-06T08:06:13.645Z,8.63
2019-05-06T08:07:13.657Z,8.70
2019-05-06T08:08:13.623Z,8.85
2019-05-06T08:09:13.610Z,8.76
2019-05-06T08:10:13.711Z,8.79
2019-05-06T08:11:13.586Z,8.89
2019-05-06T08:12:13.612Z,8.78
2019-05-06T08:13:13.564Z,8.80
2019-05-06T08:14:13.554Z,8.79
2019-05-06T08:15:13.590Z,8.65
2019-05-06T08:16:13.533Z,8.64
2019-05-06T08:17:13.547Z,8.73
2019-05-06T08:18:13.509Z,8.78
2019-05-06T08:19:13.500Z,8.85
2019-05-06T08:20:13.489Z,8.93
2019-05-06T08:21:13.474Z,8.89
2019-05-06T08:22:13.489Z,8.86
2019-05-06T08:23:13.453Z,8.76
2019-05-06T08:24:13.449Z,8.68
2019-05-06T08:25:13.431Z,8.75
2019-05-06T08:26:17.361Z,8.64
2019-05-06T08:27:13.412Z,8.60
2019-05-06T08:28:13.522Z,8.67
2019-05-06T08:29:15.964Z,8.61
2019-05-06T08:30:13.520Z,8.57
2019-05-06T08:31:13.375Z,8.61
2019-05-06T08:32:13.360Z,8.58
2019-05-06T08:33:13.367Z,8.61
2019-05-06T08:34:13.331Z,8.58
2019-05-06T08:35:13.493Z,8.60
2019-05-06T08:36:14.976Z,8.54
2019-05-06T08:37:13.297Z,8.52
2019-05-06T08:38:13.324Z,8.60
2019-05-06T08:39:13.281Z,8.61
2019-05-06T08:40:13.269Z,8.60
2019-05-06T08:41:13.255Z,8.64
2019-05-06T08:42:13.606Z,8.58
2019-05-06T08:43:13.302Z,8.67
2019-05-06T08:44:13.245Z,8.68
2019-05-06T08:45:13.215Z,8.68
2019-05-06T08:46:13.215Z,8.73
2019-05-06T08:47:13.402Z,8.71
2019-05-06T08:48:13.201Z,8.71
2019-05-06T08:49:13.195Z,8.75
2019-05-06T08:50:13.156Z,8.70
2019-05-06T08:51:13.168Z,8.63
2019-05-06T08:52:13.134Z,8.60
2019-05-06T08:53:13.879Z,8.58
2019-05-06T08:54:13.439Z,8.60
2019-05-06T08:55:13.097Z,8.63
2019-05-06T08:56:16.170Z,8.64
2019-05-06T08:57:13.075Z,8.67
2019-05-06T08:58:14.011Z,8.63
2019-05-06T08:59:14.025Z,8.65
2019-05-06T09:00:13.072Z,8.61
2019-05-06T09:01:13.032Z,8.73
2019-05-06T09:02:13.695Z,8.71
2019-05-06T09:03:14.290Z,8.79
2019-05-06T09:04:15.959Z,8.83
2019-05-06T09:05:13.010Z,8.83
2019-05-06T09:06:26.934Z,8.65
2019-05-06T09:07:13.968Z,8.67
2019-05-06T09:08:13.748Z,8.71
2019-05-06T09:09:13.227Z,8.61
2019-05-06T09:10:13.212Z,8.58
2019-05-06T09:11:12.924Z,8.58
2019-05-06T09:12:13.123Z,8.60
2019-05-06T09:13:12.897Z,8.60
2019-05-06T09:14:13.939Z,8.57
2019-05-06T09:15:12.908Z,8.57
2019-05-06T09:16:13.099Z,8.63
2019-05-06T09:17:12.854Z,8.60
2019-05-06T09:18:12.842Z,8.60
2019-05-06T09:19:13.092Z,8.43
2019-05-06T09:20:13.051Z,8.49
2019-05-06T09:21:12.813Z,8.40
2019-05-06T09:22:13.008Z,8.42
2019-05-06T09:23:12.789Z,8.46
2019-05-06T09:24:13.060Z,8.43
2019-05-06T09:25:12.992Z,8.46
2019-05-06T09:26:13.074Z,8.40
2019-05-06T09:27:12.745Z,8.40
2019-05-06T09:28:13.208Z,8.50
2019-05-06T09:29:12.926Z,8.54
2019-05-06T09:30:13.118Z,8.55
2019-05-06T09:31:12.735Z,8.60
2019-05-06T09:32:13.999Z,8.60
2019-05-06T09:33:12.970Z,8.63
2019-05-06T09:34:13.097Z,8.71
2019-05-06T09:35:13.165Z,8.78
2019-05-06T09:36:12.852Z,8.85
2019-05-06T09:37:13.606Z,8.82
2019-05-06T09:38:12.822Z,8.91
2019-05-06T09:39:13.058Z,8.96
2019-05-06T09:40:12.777Z,8.93
2019-05-06T09:41:12.598Z,8.86
2019-05-06T09:42:12.942Z,8.91
2019-05-06T09:43:13.194Z,9.06
2019-05-06T09:44:12.572Z,9.03
2019-05-06T09:45:12.653Z,9.04
2019-05-06T09:46:12.990Z,9.13
2019-05-06T09:47:12.778Z,9.16
2019-05-06T09:48:12.960Z,9.19
2019-05-06T09:49:12.827Z,9.22
2019-05-06T09:50:12.857Z,9.06
2019-05-06T09:51:13.092Z,9.06
2019-05-06T09:52:13.072Z,8.96
2019-05-06T09:53:13.154Z,8.97
2019-05-06T09:54:12.978Z,8.93
2019-05-06T09:55:12.842Z,8.88
2019-05-06T09:56:13.237Z,8.85
2019-05-06T09:57:12.945Z,8.86
2019-05-06T09:58:12.463Z,8.93
2019-05-06T09:59:12.910Z,8.89
2019-05-06T10:00:12.543Z,8.94
2019-05-06T10:01:13.087Z,8.98
2019-05-06T10:02:12.597Z,9.06
2019-05-06T10:03:12.365Z,9.08
2019-05-06T10:04:13.078Z,9.10
2019-05-06T10:05:12.347Z,9.16
2019-05-06T10:06:13.154Z,9.22
2019-05-06T10:07:12.304Z,9.35
2019-05-06T10:08:12.611Z,9.34
2019-05-06T10:09:15.874Z,9.38
2019-05-06T10:10:12.305Z,9.49
2019-05-06T10:11:12.254Z,9.44
2019-05-06T10:12:12.888Z,9.52
2019-05-06T10:13:12.813Z,9.52
2019-05-06T10:14:12.878Z,9.55
2019-05-06T10:15:12.706Z,9.62
2019-05-06T10:16:12.983Z,9.60
2019-05-06T10:17:13.162Z,9.58
2019-05-06T10:18:13.319Z,9.65
2019-05-06T10:19:13.166Z,9.60
2019-05-06T10:20:12.759Z,9.58
2019-05-06T10:21:12.562Z,9.62
2019-05-06T10:22:12.679Z,9.60
2019-05-06T10:23:12.122Z,9.65
2019-05-06T10:24:12.111Z,9.58
2019-05-06T10:25:12.268Z,9.78
2019-05-06T10:26:12.963Z,9.59
2019-05-06T10:27:12.364Z,9.63
2019-05-06T10:28:12.536Z,9.75
2019-05-06T10:29:12.829Z,9.77
2019-05-06T10:30:12.655Z,9.85
2019-05-06T10:31:12.723Z,9.96
2019-05-06T10:32:12.184Z,10.01
2019-05-06T10:33:12.008Z,10.09
2019-05-06T10:34:14.049Z,10.14
2019-05-06T10:35:13.099Z,10.16
2019-05-06T10:36:12.965Z,10.14
2019-05-06T10:37:18.666Z,10.17
2019-05-06T10:38:12.950Z,10.32
2019-05-06T10:39:12.655Z,10.51
2019-05-06T10:40:13.490Z,10.66
2019-05-06T10:41:13.027Z,10.76
2019-05-06T10:42:13.130Z,10.95
2019-05-06T10:43:11.897Z,10.95
2019-05-06T10:44:11.906Z,11.03
2019-05-06T10:45:12.393Z,10.98
2019-05-06T10:46:13.193Z,10.94
2019-05-06T10:47:12.216Z,10.94
2019-05-06T10:48:12.862Z,11.02
2019-05-06T10:49:13.210Z,11.03
2019-05-06T10:50:12.549Z,11.12
2019-05-06T10:51:13.529Z,11.17
2019-05-06T10:52:12.723Z,11.28
2019-05-06T10:53:13.508Z,11.27
2019-05-06T10:54:12.254Z,11.13
2019-05-06T10:55:12.295Z,11.09
2019-05-06T10:56:12.687Z,11.09
2019-05-06T10:57:12.508Z,10.91
2019-05-06T10:58:12.791Z,10.76
2019-05-06T10:59:12.999Z,10.69
2019-05-06T11:00:12.245Z,10.75
2019-05-06T11:01:12.514Z,10.72
2019-05-06T11:02:12.955Z,10.75
2019-05-06T11:03:14.745Z,10.95
2019-05-06T11:04:11.664Z,11.08
2019-05-06T11:05:11.651Z,10.94
2019-05-06T11:06:13.191Z,10.95
2019-05-06T11:07:12.416Z,10.93
2019-05-06T11:08:12.618Z,10.94
2019-05-06T11:09:13.503Z,10.94
2019-05-06T11:10:23.403Z,10.87
2019-05-06T11:11:20.095Z,10.83
2019-05-06T11:12:12.573Z,10.86
2019-05-06T11:13:12.842Z,10.88
2019-05-06T11:14:12.729Z,10.72
2019-05-06T11:15:12.444Z,10.65
2019-05-06T11:16:12.931Z,10.58
2019-05-06T11:17:12.495Z,10.43
2019-05-06T11:18:13.523Z,10.42
2019-05-06T11:19:13.297Z,10.43
2019-05-06T11:20:13.966Z,10.29
2019-05-06T11:21:12.748Z,10.34
2019-05-06T11:22:12.862Z,10.35
2019-05-06T11:23:11.477Z,10.31
2019-05-06T11:24:12.263Z,10.22
2019-05-06T11:25:12.312Z,10.31
2019-05-06T11:26:13.158Z,10.24
2019-05-06T11:27:25.309Z,10.20
2019-05-06T11:28:12.962Z,10.07
2019-05-06T11:29:12.471Z,10.13
2019-05-06T11:30:12.803Z,10.09
2019-05-06T11:31:13.916Z,10.10
2019-05-06T11:32:12.823Z,10.13
2019-05-06T11:33:13.047Z,10.16
2019-05-06T11:34:12.613Z,10.18
2019-05-06T11:35:12.323Z,10.16
2019-05-06T11:36:12.202Z,10.11
2019-05-06T11:37:12.047Z,10.16
2019-05-06T11:38:12.136Z,10.14
2019-05-06T11:39:14.063Z,10.11
2019-05-06T11:40:16.626Z,10.10
2019-05-06T11:41:13.168Z,10.11
2019-05-06T11:42:25.032Z,10.14
2019-05-06T11:43:12.248Z,10.13
2019-05-06T11:44:12.725Z,10.13
2019-05-06T11:45:12.196Z,10.20
2019-05-06T11:46:12.300Z,10.22
2019-05-06T11:47:12.505Z,10.24
2019-05-06T11:48:14.333Z,10.24
2019-05-06T11:49:12.491Z,10.18
2019-05-06T11:50:12.937Z,10.22
2019-05-06T11:51:12.779Z,10.31
2019-05-06T11:52:13.009Z,10.36
2019-05-06T11:53:12.503Z,10.34
2019-05-06T11:54:19.372Z,10.34
2019-05-06T11:55:12.612Z,10.32
2019-05-06T11:56:12.764Z,10.39
2019-05-06T11:57:12.420Z,10.39
2019-05-06T11:58:12.698Z,10.32
2019-05-06T11:59:12.975Z,10.35
2019-05-06T12:00:12.628Z,10.35
2019-05-06T12:01:13.306Z,10.24
2019-05-06T12:02:12.719Z,10.28
2019-05-06T12:03:12.748Z,10.22
2019-05-06T12:04:13.718Z,10.28
2019-05-06T12:05:10.984Z,10.22
2019-05-06T12:06:13.015Z,10.29
2019-05-06T12:07:15.237Z,10.35
2019-05-06T12:08:15.370Z,10.44
2019-05-06T12:09:16.311Z,10.34
2019-05-06T12:10:12.962Z,10.46
2019-05-06T12:11:12.521Z,10.43
2019-05-06T12:12:12.798Z,10.42
2019-05-06T12:13:12.253Z,10.46
2019-05-06T12:14:12.431Z,10.49
2019-05-06T12:15:12.599Z,10.52
2019-05-06T12:16:13.746Z,10.49
2019-05-06T12:17:12.801Z,10.49
2019-05-06T12:18:12.498Z,10.43
2019-05-06T12:19:12.924Z,10.39
2019-05-06T12:20:12.920Z,10.35
2019-05-06T12:21:13.348Z,10.39
2019-05-06T12:22:12.581Z,10.35
2019-05-06T12:23:10.781Z,10.35
2019-05-06T12:24:12.240Z,10.34
2019-05-06T12:25:14.385Z,10.38
2019-05-06T12:26:13.012Z,10.44
2019-05-06T12:27:12.678Z,10.36
2019-05-06T12:28:12.397Z,10.34
2019-05-06T12:29:12.598Z,10.35
2019-05-06T12:30:12.295Z,10.31
2019-05-06T12:31:12.692Z,10.34
2019-05-06T12:32:12.857Z,10.36
2019-05-06T12:33:12.819Z,10.39
2019-05-06T12:34:12.404Z,10.38
2019-05-06T12:35:12.481Z,10.54
2019-05-06T12:36:12.756Z,10.44
2019-05-06T12:37:12.106Z,10.49
2019-05-06T12:38:24.006Z,10.52
2019-05-06T12:39:16.014Z,10.57
2019-05-06T12:40:12.518Z,10.57
2019-05-06T12:41:10.595Z,10.49
2019-05-06T12:42:10.567Z,10.58
2019-05-06T12:43:12.815Z,10.60
2019-05-06T12:44:13.119Z,10.52
2019-05-06T12:45:12.916Z,10.55
2019-05-06T12:46:13.175Z,10.57
2019-05-06T12:47:12.951Z,10.55
2019-05-06T12:48:13.027Z,10.57
2019-05-06T12:49:12.688Z,10.57
2019-05-06T12:50:10.501Z,10.62
2019-05-06T12:51:10.468Z,10.62
2019-05-06T12:52:12.334Z,10.66
2019-05-06T12:53:10.445Z,10.65
2019-05-06T12:54:12.736Z,10.60
2019-05-06T12:55:18.402Z,10.54
2019-05-06T12:56:12.400Z,10.52
2019-05-06T12:57:12.599Z,10.63
2019-05-06T12:58:13.377Z,10.60
2019-05-06T12:59:12.586Z,10.47
2019-05-06T13:00:12.926Z,10.39
2019-05-06T13:01:13.358Z,10.34
2019-05-06T13:02:12.957Z,10.42
2019-05-06T13:03:12.567Z,10.29
2019-05-06T13:04:13.249Z,10.18
2019-05-06T13:05:12.484Z,10.22
2019-05-06T13:06:12.758Z,10.28
2019-05-06T13:07:10.294Z,10.11
2019-05-06T13:08:10.313Z,10.11
2019-05-06T13:09:12.555Z,10.10
2019-05-06T13:10:10.283Z,10.13
2019-05-06T13:11:10.241Z,10.16
2019-05-06T13:12:12.265Z,10.16
2019-05-06T13:13:12.337Z,10.16